Accueil
METAR-TAF:

METAR-TAF

Aéroports :

Wake Island, États-Unis

latitude: 19-17N, longitude: 166-39E, altitude: 4 m

Observation

Le bulletin a été fait il y a 30 minutes, à 19:58 UTC
Vent 8 kt de est
Température 25°C
Humidité 100%
Pression 1015 hPa
Visibilité 10 km ou plus
Quelques nuages à une hauteur de 1600 ft

METAR: PWAK 221958Z AUTO 09008KT 9999 FEW016 25/25 A2997 RMK AO2 RAE1859 SLP155

Heure: 08:28 (20:28 UTC)

Prévision

Le bulletin a été fait il y a 6 heures et 28 minutes, à 14:00 UTC
Prévision valable du 22 à 14 UTC au 23 à 20 UTC
Vent 12 kt de est
Visibilité 10 km ou plus
Nuages épars à une hauteur de 4500 ft

TAF: PWAK 221400Z 2214/2320 09012KT 9999 SCT045 QNH2987INS TX30/2302Z TN25/2214Z

Observations et prévisions météorologiques de plus de 4000 aéroports (messages METAR et TAF).

Les stations disponibles sont représentées par des disques jaunes et rouges sur la carte.

Passer la souris dessus pour voir le nom de la station.

Cliquer dessus pour voir les observations et prévisions météorologiques.

Pour changer de carte: cliquez sur les boutons verts avec une croix noire pour zoomer, sur le bouton vert avec un tiret pour effectuer un zoom arrière, ou sur les flèches vertes pour les cartes adjacentes.


METAR-TAF: